Time;durP1;ratioP1;P1;durP2;ratioP2;P2;SDS_P1;SDS_P2;PMS_P1;PMS_P2;Temp;Humidity;BMP_temperature;BMP_pressure;BME280_temperature;BME280_humidity;BME280_pressure;Samples;Min_cycle;Max_cycle;Signal;HPM_P1;HPM_P2
2021/12/19 00:09:15;;;;;;;11.07;7.30;;;;;;;3.93;60.78;100427.81;4980642;28;20231;-82
2021/12/19 00:11:43;;;;;;;12.73;9.40;;;;;;;3.76;60.29;100411.00;4978423;28;20311;-82
2021/12/19 00:14:09;;;;;;;11.47;8.70;;;;;;;3.71;59.99;100394.75;4977595;28;20232;-82
2021/12/19 00:16:36;;;;;;;10.57;7.83;;;;;;;3.81;60.61;100405.22;4978007;28;20223;-83
2021/12/19 00:19:04;;;;;;;9.23;6.67;;;;;;;3.79;60.93;100402.72;4962186;28;20244;-82
2021/12/19 00:21:32;;;;;;;9.43;6.83;;;;;;;3.68;60.46;100386.28;4979121;28;20286;-82
2021/12/19 00:24:00;;;;;;;7.53;5.23;;;;;;;4.03;56.80;100385.28;4979147;28;20326;-82
2021/12/19 00:26:29;;;;;;;5.50;4.57;;;;;;;4.03;56.30;100393.25;4978586;28;20232;-82
2021/12/19 00:28:56;;;;;;;5.60;4.17;;;;;;;4.33;55.26;100385.59;4978900;28;20323;-82
2021/12/19 00:31:22;;;;;;;5.93;5.17;;;;;;;4.29;54.66;100378.91;4980192;28;20698;-82
2021/12/19 00:33:50;;;;;;;6.53;4.40;;;;;;;4.41;54.54;100379.47;4962788;28;20247;-82
2021/12/19 00:36:18;;;;;;;5.70;4.47;;;;;;;4.51;54.52;100377.50;4994590;28;20224;-82
2021/12/19 00:38:45;;;;;;;5.70;4.20;;;;;;;4.61;53.99;100380.00;4979939;28;20230;-82
2021/12/19 00:41:12;;;;;;;4.87;4.17;;;;;;;4.68;53.61;100384.50;4978604;28;20240;-83
2021/12/19 00:46:10;;;;;;;5.83;4.10;;;;;;;4.59;54.39;100376.69;4961301;28;20283;-82
2021/12/19 00:48:50;;;;;;;5.50;4.23;;;;;;;4.60;54.91;100365.06;4977560;28;20292;-83
2021/12/19 00:51:22;;;;;;;5.90;4.60;;;;;;;4.62;54.86;100386.97;4963126;28;20219;-82
2021/12/19 00:53:50;;;;;;;5.57;4.50;;;;;;;4.82;54.98;100386.50;4961947;28;20649;-82
2021/12/19 00:56:18;;;;;;;7.43;5.40;;;;;;;4.92;54.56;100389.00;4961349;28;20310;-83
2021/12/19 00:58:45;;;;;;;7.00;5.23;;;;;;;4.70;56.50;100387.00;4962025;28;20243;-83
2021/12/19 01:01:14;;;;;;;7.63;5.53;;;;;;;4.54;57.08;100379.81;4961847;28;20231;-82
2021/12/19 01:03:46;;;;;;;8.37;5.73;;;;;;;4.45;57.94;100372.81;4962779;28;20212;-83
2021/12/19 01:06:17;;;;;;;8.13;6.10;;;;;;;4.31;58.81;100360.19;4962644;28;20231;-82
2021/12/19 01:08:44;;;;;;;8.57;6.17;;;;;;;4.22;58.90;100366.47;4961125;28;20235;-82
2021/12/19 01:11:13;;;;;;;8.20;6.60;;;;;;;3.98;59.60;100353.94;4977394;28;20286;-82
2021/12/19 01:13:40;;;;;;;7.47;6.10;;;;;;;4.03;59.51;100356.94;4961902;28;20239;-82
2021/12/19 01:16:07;;;;;;;7.70;5.70;;;;;;;3.88;60.06;100347.94;4961548;28;20595;-82
2021/12/19 01:18:34;;;;;;;9.27;6.40;;;;;;;3.73;60.61;100341.59;4978472;28;20231;-82
2021/12/19 01:21:01;;;;;;;8.67;6.80;;;;;;;3.73;61.15;100346.88;4961477;28;20232;-82
2021/12/19 01:23:29;;;;;;;9.07;6.43;;;;;;;3.67;60.71;100343.03;4978150;28;20232;-83
2021/12/19 01:25:55;;;;;;;7.87;6.40;;;;;;;3.80;60.26;100354.03;4962231;28;20310;-83
2021/12/19 01:28:22;;;;;;;11.23;7.20;;;;;;;3.73;60.91;100354.84;4962839;28;20224;-82
2021/12/19 01:30:50;;;;;;;11.03;7.77;;;;;;;3.67;60.80;100332.44;4978670;28;20276;-82
2021/12/19 01:33:17;;;;;;;10.50;7.60;;;;;;;3.89;60.70;100334.53;4978359;28;20247;-82
2021/12/19 01:35:44;;;;;;;10.47;7.90;;;;;;;3.80;60.86;100338.13;4962344;28;20283;-82
2021/12/19 01:38:11;;;;;;;11.57;8.13;;;;;;;3.86;60.55;100337.50;4979598;28;20295;-82
2021/12/19 01:40:38;;;;;;;11.17;8.33;;;;;;;3.89;61.31;100329.22;4978780;28;20291;-82
2021/12/19 01:43:07;;;;;;;11.67;8.30;;;;;;;3.84;61.58;100344.78;4962104;28;20578;-82
2021/12/19 01:45:37;;;;;;;11.57;7.93;;;;;;;3.95;62.06;100343.66;4976854;28;20231;-82
2021/12/19 01:48:07;;;;;;;12.50;8.00;;;;;;;3.83;63.69;100339.63;4976368;28;20682;-82
2021/12/19 01:50:35;;;;;;;11.80;8.27;;;;;;;3.83;63.74;100332.50;4977110;28;20291;-83
2021/12/19 01:53:05;;;;;;;12.20;8.60;;;;;;;3.92;63.47;100336.84;4961321;28;20331;-82
2021/12/19 01:55:32;;;;;;;13.53;8.43;;;;;;;3.85;64.28;100335.84;4976179;28;20599;-82
2021/12/19 01:58:02;;;;;;;11.67;8.00;;;;;;;3.88;63.96;100316.13;4976295;28;20260;-83
2021/12/19 02:00:33;;;;;;;12.23;8.33;;;;;;;3.84;64.83;100335.97;4978737;28;20232;-82
2021/12/19 02:03:03;;;;;;;11.37;8.37;;;;;;;3.83;64.87;100319.25;4963898;28;20260;-82
2021/12/19 02:05:30;;;;;;;10.37;7.53;;;;;;;3.84;64.28;100315.63;4980727;28;20232;-82
2021/12/19 02:07:58;;;;;;;10.73;7.80;;;;;;;4.02;64.60;100312.03;4979761;28;20227;-82
2021/12/19 02:10:28;;;;;;;13.00;8.83;;;;;;;3.99;64.74;100321.13;4963609;28;20283;-82
2021/12/19 02:12:58;;;;;;;11.93;7.80;;;;;;;4.09;65.24;100331.63;4963933;28;20279;-82
2021/12/19 02:15:31;;;;;;;12.63;8.67;;;;;;;4.02;66.03;100328.75;4964753;28;20236;-82
2021/12/19 02:18:03;;;;;;;11.13;8.17;;;;;;;3.96;66.32;100332.06;4965834;28;20239;-82
2021/12/19 02:20:39;;;;;;;12.40;9.17;;;;;;;3.87;67.59;100328.53;4980433;28;20223;-82
2021/12/19 02:23:08;;;;;;;12.70;9.03;;;;;;;3.69;68.42;100317.19;4964043;28;20239;-82
2021/12/19 02:25:38;;;;;;;11.80;9.03;;;;;;;3.67;69.02;100305.94;4981320;28;20252;-82
2021/12/19 02:28:06;;;;;;;14.83;9.23;;;;;;;3.82;68.97;100311.47;4979594;28;20232;-82
2021/12/19 02:30:33;;;;;;;12.07;9.10;;;;;;;3.76;69.08;100304.97;4979355;28;20290;-82
2021/12/19 02:33:00;;;;;;;12.97;8.77;;;;;;;3.71;69.80;100323.19;4980211;28;20240;-82
2021/12/19 02:35:32;;;;;;;13.93;9.90;;;;;;;3.64;69.94;100308.09;4979751;28;20733;-82
2021/12/19 02:48:39;;;;;;;15.33;10.17;;;;;;;3.20;71.84;100283.50;4979326;28;20242;-82
2021/12/19 02:51:07;;;;;;;16.83;11.23;;;;;;;3.07;71.93;100283.94;4962923;28;20236;-83
2021/12/19 02:53:36;;;;;;;13.53;9.80;;;;;;;3.10;72.70;100302.97;4962636;28;20224;-82
2021/12/19 02:56:09;;;;;;;14.17;9.97;;;;;;;3.05;72.54;100285.88;4962251;28;20232;-82
2021/12/19 02:58:38;;;;;;;15.17;10.37;;;;;;;2.98;72.92;100272.47;4979574;28;20582;-82
2021/12/19 03:01:13;;;;;;;14.57;10.47;;;;;;;2.94;73.08;100292.25;4962475;28;20227;-82
2021/12/19 03:03:41;;;;;;;17.87;11.57;;;;;;;2.92;73.59;100280.19;4979297;28;20239;-82
2021/12/19 03:06:13;;;;;;;15.20;10.03;;;;;;;2.97;73.25;100269.97;4967630;28;20255;-82
2021/12/19 03:08:47;;;;;;;15.10;9.80;;;;;;;2.97;72.66;100259.38;4991899;28;20236;-82
2021/12/19 03:19:39;;;;;;;14.67;10.43;;;;;;;2.87;73.01;100248.03;4991805;28;20322;-82
2021/12/19 03:22:06;;;;;;;13.00;9.20;;;;;;;2.88;73.15;100241.78;4990134;28;20240;-81
2021/12/19 03:24:33;;;;;;;12.23;8.83;;;;;;;2.91;73.09;100258.16;4991063;28;20211;-82
2021/12/19 03:27:00;;;;;;;12.80;9.30;;;;;;;2.86;73.17;100255.16;4991077;28;20175;-82
2021/12/19 03:29:28;;;;;;;13.63;8.63;;;;;;;2.93;72.89;100252.72;4990424;28;20231;-82
2021/12/19 03:31:57;;;;;;;13.37;9.43;;;;;;;2.94;73.23;100244.59;4990312;28;20216;-82
2021/12/19 03:34:24;;;;;;;11.20;8.20;;;;;;;2.91;73.38;100237.00;4991703;28;20290;-82
2021/12/19 03:36:52;;;;;;;12.67;9.00;;;;;;;2.71;73.82;100232.88;4989709;28;20184;-82
2021/12/19 03:39:33;;;;;;;12.00;8.37;;;;;;;3.00;73.09;100251.09;4974617;28;20208;-81
2021/12/19 03:42:04;;;;;;;11.83;8.23;;;;;;;2.93;73.24;100239.50;4990271;28;20238;-82
2021/12/19 03:44:31;;;;;;;12.47;8.27;;;;;;;2.92;73.38;100248.41;4991349;28;20224;-83
2021/12/19 03:46:59;;;;;;;11.10;8.50;;;;;;;2.82;73.46;100235.28;4990359;28;20188;-81
2021/12/19 03:49:29;;;;;;;13.10;8.47;;;;;;;2.79;73.73;100238.25;4991214;28;20189;-82
2021/12/19 03:51:58;;;;;;;11.40;8.63;;;;;;;2.70;74.02;100233.88;4989251;28;20188;-82
2021/12/19 03:54:24;;;;;;;11.53;8.53;;;;;;;2.88;73.09;100242.59;4988711;28;20247;-82
2021/12/19 03:56:53;;;;;;;12.70;9.13;;;;;;;2.88;73.54;100262.94;4988098;28;20327;-82
2021/12/19 03:59:19;;;;;;;12.67;8.90;;;;;;;2.80;73.77;100242.53;4989362;28;20243;-82
2021/12/19 04:01:51;;;;;;;11.67;8.17;;;;;;;2.80;73.83;100234.59;4989266;28;20208;-82
2021/12/19 04:04:26;;;;;;;12.10;8.80;;;;;;;2.87;74.33;100238.28;4990427;28;20271;-82
2021/12/19 04:06:54;;;;;;;12.37;8.53;;;;;;;2.73;74.44;100216.84;4984894;28;20244;-82
2021/12/19 04:09:22;;;;;;;10.27;7.70;;;;;;;2.83;74.27;100207.00;4947298;28;20644;-82
2021/12/19 04:11:51;;;;;;;11.10;7.80;;;;;;;2.93;74.23;100205.09;4979920;28;20235;-82
2021/12/19 04:14:23;;;;;;;11.70;8.27;;;;;;;3.02;74.04;100206.78;4980217;28;20240;-82
2021/12/19 04:16:50;;;;;;;9.23;7.13;;;;;;;3.12;73.84;100185.50;4979384;28;20246;-82
2021/12/19 04:19:20;;;;;;;11.53;7.37;;;;;;;3.10;73.95;100183.00;4977886;28;20317;-82
2021/12/19 04:21:47;;;;;;;10.63;6.60;;;;;;;3.12;73.82;100172.25;4946246;28;20639;-83
2021/12/19 04:24:13;;;;;;;9.67;6.90;;;;;;;3.17;73.67;100184.03;4976307;28;20291;-82
2021/12/19 04:26:40;;;;;;;10.60;7.40;;;;;;;3.13;73.59;100182.66;4945982;28;20239;-82
2021/12/19 04:29:07;;;;;;;10.77;7.70;;;;;;;3.13;73.49;100187.97;4946277;28;20263;-82
2021/12/19 04:31:34;;;;;;;10.93;8.13;;;;;;;3.18;73.32;100187.50;4960820;28;20238;-82
2021/12/19 04:34:01;;;;;;;9.60;7.43;;;;;;;3.07;74.08;100178.84;4978144;28;20263;-82
2021/12/19 04:36:34;;;;;;;9.47;6.83;;;;;;;3.21;73.66;100176.59;4961534;28;20307;-82
2021/12/19 05:14:17;;;;;;;6.70;5.40;;;;;;;3.43;74.06;100088.59;4961767;28;20339;-82
2021/12/19 05:16:48;;;;;;;8.37;5.87;;;;;;;3.51;74.51;100085.97;4976240;28;20224;-84
2021/12/19 05:19:30;;;;;;;9.17;6.03;;;;;;;3.58;74.51;100081.69;4961965;28;20232;-82
2021/12/19 05:22:01;;;;;;;7.30;5.50;;;;;;;3.57;74.29;100093.25;4946285;28;20286;-82
2021/12/19 05:27:05;;;;;;;6.13;5.27;;;;;;;3.68;74.07;100077.06;4976939;28;20544;-82
2021/12/19 05:29:33;;;;;;;6.37;4.93;;;;;;;3.79;73.95;100070.56;4976298;28;20279;-82
2021/12/19 05:32:03;;;;;;;6.67;4.60;;;;;;;3.83;74.21;100071.91;4976827;28;20263;-83
2021/12/19 05:34:30;;;;;;;6.67;4.57;;;;;;;3.79;73.82;100044.06;4978124;28;20228;-82
2021/12/19 05:45:19;;;;;;;5.67;4.67;;;;;;;3.94;73.64;100030.00;4982138;28;20258;-83
2021/12/19 05:47:50;;;;;;;5.90;4.50;;;;;;;4.00;73.63;100033.81;4981177;28;20644;-82
2021/12/19 05:50:19;;;;;;;5.77;4.13;;;;;;;4.03;73.37;100009.59;4964051;28;20242;-82
2021/12/19 05:52:47;;;;;;;5.17;4.13;;;;;;;3.96;73.69;100011.28;4964659;28;20251;-82
2021/12/19 05:55:16;;;;;;;5.53;3.97;;;;;;;4.08;73.02;100023.19;4963620;28;20261;-82
2021/12/19 05:57:43;;;;;;;4.20;3.40;;;;;;;4.14;73.05;100016.38;4981699;28;20303;-82
2021/12/19 06:00:16;;;;;;;4.80;3.83;;;;;;;4.07;73.55;100026.81;4981273;28;20326;-82
2021/12/19 06:02:43;;;;;;;4.10;3.17;;;;;;;4.14;73.55;100008.44;4982022;28;20228;-82
2021/12/19 06:05:18;;;;;;;4.20;3.60;;;;;;;4.21;72.76;100015.53;4981102;28;20216;-82
2021/12/19 06:07:48;;;;;;;5.23;3.87;;;;;;;4.09;72.63;99993.03;4980093;28;20654;-82
2021/12/19 06:10:14;;;;;;;4.73;3.77;;;;;;;4.03;73.51;99990.22;4963912;28;20240;-83
2021/12/19 06:12:42;;;;;;;4.33;3.30;;;;;;;3.97;73.77;99995.19;4949375;28;20231;-82
2021/12/19 06:15:10;;;;;;;4.13;3.17;;;;;;;3.95;73.75;99994.53;4980989;28;20239;-83
2021/12/19 06:17:44;;;;;;;3.77;2.90;;;;;;;3.97;73.73;99989.88;4981165;28;20259;-83
2021/12/19 06:20:13;;;;;;;4.10;3.43;;;;;;;4.00;73.34;99978.13;4981976;28;20247;-82
2021/12/19 06:22:40;;;;;;;3.73;2.93;;;;;;;4.05;73.62;99981.09;4978769;28;20259;-82
2021/12/19 06:25:08;;;;;;;4.43;3.30;;;;;;;4.18;72.83;99980.56;4963047;28;20231;-82
2021/12/19 06:27:35;;;;;;;3.27;2.70;;;;;;;4.21;73.28;100004.91;4962711;28;20286;-82
2021/12/19 06:30:04;;;;;;;3.33;2.70;;;;;;;4.31;72.61;99999.41;4963340;28;20243;-82
2021/12/19 06:32:31;;;;;;;3.53;2.93;;;;;;;4.37;72.06;100004.06;4978545;28;20311;-83
2021/12/19 06:34:59;;;;;;;10.13;5.93;;;;;;;4.33;71.66;99998.28;4947290;28;20238;-82
2021/12/19 06:37:26;;;;;;;4.23;3.13;;;;;;;4.32;71.92;99964.78;4978961;28;20621;-82
2021/12/19 06:39:53;;;;;;;5.70;4.07;;;;;;;4.48;71.25;99971.81;4962286;28;20235;-82
2021/12/19 06:42:21;;;;;;;3.30;2.70;;;;;;;4.57;71.04;99973.47;4962027;28;20318;-82
2021/12/19 06:44:48;;;;;;;3.43;2.80;;;;;;;4.56;70.48;99957.72;4977982;28;20224;-82
2021/12/19 06:47:15;;;;;;;3.80;2.63;;;;;;;4.50;70.87;99961.88;4979474;28;20275;-82
2021/12/19 06:49:42;;;;;;;2.93;2.43;;;;;;;4.57;70.63;99957.56;4979789;28;20212;-82
2021/12/19 06:52:10;;;;;;;3.50;2.63;;;;;;;4.59;70.81;99955.53;4978822;28;20267;-82
2021/12/19 06:54:37;;;;;;;3.23;2.40;;;;;;;4.69;69.79;99942.88;4963544;28;20298;-82
2021/12/19 06:57:06;;;;;;;3.60;2.90;;;;;;;4.68;69.74;99937.75;4978740;28;20240;-83
2021/12/19 06:59:33;;;;;;;2.87;2.23;;;;;;;4.86;69.08;99933.00;4980108;28;20279;-82
2021/12/19 07:02:00;;;;;;;2.70;2.20;;;;;;;4.83;68.57;99920.06;4979648;28;20588;-83
2021/12/19 07:04:27;;;;;;;3.00;2.60;;;;;;;4.99;67.86;99938.56;4963933;28;20223;-82
2021/12/19 07:06:53;;;;;;;3.20;2.60;;;;;;;4.96;68.27;99935.41;4980989;28;20259;-82
2021/12/19 07:09:21;;;;;;;3.30;2.60;;;;;;;5.04;68.14;99930.06;4980891;28;20232;-83
2021/12/19 07:11:48;;;;;;;6.67;4.60;;;;;;;5.02;67.83;99937.38;4982564;28;20592;-83
2021/12/19 07:14:19;;;;;;;3.00;2.50;;;;;;;5.05;67.93;99918.44;4965420;28;20385;-82
2021/12/19 07:16:47;;;;;;;5.23;3.57;;;;;;;5.08;66.92;99910.94;4982557;28;20248;-82
2021/12/19 07:19:14;;;;;;;3.53;2.60;;;;;;;5.19;67.39;99915.00;4949283;28;20220;-82
2021/12/19 07:21:41;;;;;;;2.30;2.10;;;;;;;5.26;67.12;99915.94;4981131;28;20236;-82
2021/12/19 07:24:07;;;;;;;3.53;3.00;;;;;;;5.20;66.80;99908.69;4964254;28;20235;-82
2021/12/19 07:26:34;;;;;;;3.17;2.57;;;;;;;5.37;66.62;99899.56;4963335;28;20587;-82
2021/12/19 07:29:05;;;;;;;4.53;2.30;;;;;;;5.58;65.60;99904.22;4978445;28;20541;-82
2021/12/19 07:31:37;;;;;;;3.83;2.43;;;;;;;5.58;65.43;99885.59;4981724;28;20228;-82
2021/12/19 07:34:05;;;;;;;3.27;2.30;;;;;;;5.72;64.63;99911.38;4979557;28;20232;-82
2021/12/19 07:36:42;;;;;;;2.63;2.33;;;;;;;5.65;65.32;99892.66;4979938;28;20244;-82
2021/12/19 07:39:21;;;;;;;4.13;2.30;;;;;;;5.74;64.73;99882.75;4962910;28;20651;-82
2021/12/19 07:41:48;;;;;;;3.57;2.23;;;;;;;5.78;64.64;99897.38;4964800;28;20243;-83
2021/12/19 07:44:16;;;;;;;2.50;2.00;;;;;;;5.97;64.37;99899.50;4980402;28;20240;-83
2021/12/19 07:46:44;;;;;;;2.63;2.07;;;;;;;5.87;63.95;99875.03;4964925;28;20224;-82
2021/12/19 07:49:13;;;;;;;2.53;2.00;;;;;;;5.97;63.76;99859.59;4980129;28;20282;-83
2021/12/19 07:51:40;;;;;;;2.33;1.90;;;;;;;6.05;63.30;99861.34;4963903;28;20235;-82
2021/12/19 07:54:07;;;;;;;4.00;2.20;;;;;;;6.12;63.31;99839.13;4964367;28;20232;-82
2021/12/19 07:56:34;;;;;;;2.23;1.73;;;;;;;6.32;62.37;99846.53;4963228;28;20232;-82
2021/12/19 07:59:02;;;;;;;2.30;1.80;;;;;;;6.30;62.34;99843.25;4979190;28;20287;-83
2021/12/19 08:01:29;;;;;;;2.27;2.00;;;;;;;6.45;61.58;99836.88;4965379;28;20307;-83
2021/12/19 08:03:56;;;;;;;2.13;1.93;;;;;;;6.51;61.18;99840.63;4965080;28;20247;-83
2021/12/19 08:06:24;;;;;;;2.00;1.70;;;;;;;6.62;61.02;99859.56;4980260;28;20236;-82
2021/12/19 08:08:55;;;;;;;2.37;1.90;;;;;;;6.78;60.38;99858.50;4949479;28;20254;-82
2021/12/19 08:11:40;;;;;;;2.20;1.90;;;;;;;6.74;60.46;99841.28;4965772;28;20232;-83
2021/12/19 08:14:09;;;;;;;2.17;1.80;;;;;;;6.98;59.97;99846.22;4978849;28;20220;-83
2021/12/19 08:16:37;;;;;;;2.23;2.00;;;;;;;7.06;59.13;99856.75;4964764;28;20265;-82
2021/12/19 08:19:04;;;;;;;2.87;1.90;;;;;;;7.05;59.36;99852.41;4978046;28;20286;-82
2021/12/19 08:21:31;;;;;;;2.30;2.10;;;;;;;7.06;59.15;99834.59;4959924;28;20223;-83
2021/12/19 08:28:28;;;;;;;1.97;1.63;;;;;;;7.01;58.88;99811.19;4983548;28;20262;-82
2021/12/19 08:31:09;;;;;;;2.53;1.93;;;;;;;7.12;59.05;99817.03;4964620;29;20212;-83
2021/12/19 08:33:39;;;;;;;2.40;1.87;;;;;;;7.16;58.97;99799.63;4963971;28;20232;-82
2021/12/19 08:36:07;;;;;;;2.07;1.87;;;;;;;7.15;58.80;99790.81;4968574;28;20244;-81
2021/12/19 08:38:34;;;;;;;2.40;2.00;;;;;;;7.26;58.22;99779.63;4947660;29;20237;-83
2021/12/19 08:41:13;;;;;;;2.37;1.90;;;;;;;7.34;58.12;99767.97;4938160;29;20251;-82
2021/12/19 08:43:41;;;;;;;2.47;1.87;;;;;;;7.44;57.85;99769.28;4984875;28;20220;-82
2021/12/19 08:46:19;;;;;;;2.43;2.00;;;;;;;7.50;57.34;99773.03;4972444;28;20235;-82
2021/12/19 08:48:51;;;;;;;2.20;1.90;;;;;;;7.53;56.86;99769.94;4988037;28;20291;-82
2021/12/19 08:51:19;;;;;;;3.20;2.40;;;;;;;7.59;57.17;99774.50;4979004;28;20229;-82
2021/12/19 08:53:46;;;;;;;3.10;2.00;;;;;;;7.63;56.90;99772.25;4944030;29;20232;-82
2021/12/19 08:56:16;;;;;;;2.57;2.27;;;;;;;7.75;56.51;99779.50;4948477;28;20324;-83
2021/12/19 08:58:44;;;;;;;3.17;2.37;;;;;;;7.74;56.80;99796.53;4965540;28;20227;-83
2021/12/19 09:01:11;;;;;;;3.50;2.50;;;;;;;7.79;56.70;99788.75;4979338;28;20231;-83
2021/12/19 09:03:38;;;;;;;2.60;2.20;;;;;;;7.76;56.50;99781.16;4997129;28;20224;-83
2021/12/19 09:06:06;;;;;;;2.37;2.00;;;;;;;7.85;56.65;99801.31;4995787;28;20231;-83
2021/12/19 09:08:33;;;;;;;2.73;2.20;;;;;;;7.98;56.36;99789.88;4997882;28;20220;-83
2021/12/19 09:11:00;;;;;;;2.77;2.13;;;;;;;7.98;55.88;99792.53;4999654;28;20266;-83
2021/12/19 09:13:29;;;;;;;2.47;1.87;;;;;;;8.13;55.63;99803.88;4982149;28;20312;-83
2021/12/19 09:15:56;;;;;;;2.43;2.10;;;;;;;8.12;55.66;99791.56;5000414;28;20212;-83
2021/12/19 09:18:28;;;;;;;3.37;2.67;;;;;;;8.05;56.02;99787.22;5000778;28;20243;-83
2021/12/19 09:20:59;;;;;;;3.60;2.17;;;;;;;8.24;55.11;99814.00;5002860;28;20240;-83
2021/12/19 09:23:27;;;;;;;2.63;2.30;;;;;;;8.16;55.83;99795.50;4989730;28;20675;-83
2021/12/19 09:25:57;;;;;;;2.67;2.17;;;;;;;8.42;54.35;99808.13;4988639;28;20236;-84
2021/12/19 09:28:28;;;;;;;2.60;2.00;;;;;;;8.29;55.02;99797.38;4978589;28;20527;-83
2021/12/19 09:30:54;;;;;;;2.30;1.97;;;;;;;8.38;55.10;99786.34;5001300;28;20266;-82
2021/12/19 09:33:26;;;;;;;2.70;2.27;;;;;;;8.47;54.15;99786.16;4983576;28;20196;-82
2021/12/19 09:35:53;;;;;;;2.47;2.23;;;;;;;8.48;53.73;99774.47;4998654;28;20239;-82
2021/12/19 09:38:20;;;;;;;3.30;2.50;;;;;;;8.45;52.91;99756.97;5002192;28;20231;-82
2021/12/19 09:40:50;;;;;;;3.53;2.40;;;;;;;8.58;52.93;99762.38;4997778;28;20228;-83
2021/12/19 09:46:23;;;;;;;2.47;1.93;;;;;;;8.65;53.24;99752.50;4954780;28;20233;-82
2021/12/19 09:48:50;;;;;;;2.30;1.90;;;;;;;8.59;54.14;99771.19;4963224;28;20247;-82
2021/12/19 09:51:18;;;;;;;1.67;1.37;;;;;;;8.55;54.79;99764.59;4997861;28;20266;-82
2021/12/19 09:53:45;;;;;;;2.37;1.80;;;;;;;8.57;55.26;99762.56;4998372;28;20231;-80
2021/12/19 09:56:13;;;;;;;15.67;9.17;;;;;;;8.51;55.03;99748.16;5000050;28;20232;-81
2021/12/19 09:58:41;;;;;;;2.10;1.87;;;;;;;8.70;52.56;99738.53;4968786;28;20239;-81
2021/12/19 10:01:11;;;;;;;2.73;1.97;;;;;;;8.78;52.49;99730.31;4950514;28;20304;-80
2021/12/19 10:03:38;;;;;;;3.27;2.70;;;;;;;9.00;51.34;99736.28;4981599;28;20223;-82
2021/12/19 10:06:12;;;;;;;1.57;1.47;;;;;;;9.34;48.95;99714.63;4982648;28;20236;-82
2021/12/19 10:08:43;;;;;;;2.07;1.70;;;;;;;9.29;49.89;99703.72;4985220;28;20595;-83
2021/12/19 10:11:35;;;;;;;2.00;1.50;;;;;;;9.42;49.06;99716.28;4975558;28;20192;-83
2021/12/19 10:14:42;;;;;;;2.20;1.80;;;;;;;9.43;49.37;99689.28;4988568;28;20267;-82
2021/12/19 10:17:19;;;;;;;1.73;1.63;;;;;;;9.51;48.63;99698.97;4981590;28;20324;-82
2021/12/19 10:19:53;;;;;;;3.70;1.90;;;;;;;9.42;49.86;99693.03;4984794;28;20212;-80
2021/12/19 10:22:32;;;;;;;2.17;1.97;;;;;;;9.52;48.93;99706.75;4983269;28;20655;-80
2021/12/19 10:25:14;;;;;;;2.07;1.83;;;;;;;9.52;49.49;99696.06;4984882;28;20302;-80
2021/12/19 10:28:09;;;;;;;2.87;1.90;;;;;;;9.53;49.69;99703.06;4985761;28;20224;-80
2021/12/19 10:30:48;;;;;;;2.60;1.97;;;;;;;9.53;49.69;99708.41;4967189;28;20230;-80
2021/12/19 10:33:36;;;;;;;2.60;2.10;;;;;;;9.66;49.21;99710.19;4986630;28;20314;-80
2021/12/19 10:36:06;;;;;;;2.23;2.00;;;;;;;9.70;49.48;99706.88;4984293;28;20499;-82
2021/12/19 10:38:40;;;;;;;2.33;2.13;;;;;;;9.70;49.39;99700.75;4986856;28;20224;-82
2021/12/19 10:41:17;;;;;;;2.37;1.90;;;;;;;9.77;49.70;99690.81;4985508;28;20225;-82
2021/12/19 10:45:29;;;;;;;2.50;1.70;;;;;;;9.66;50.33;99683.44;4983266;28;20296;-81
2021/12/19 10:46:47;;;;;;;2.00;1.80;;;;;;;9.70;50.33;99695.41;4982966;28;20247;-82
2021/12/19 10:49:24;;;;;;;2.50;1.83;;;;;;;9.64;49.90;99688.22;4982245;28;20516;-80
2021/12/19 10:51:51;;;;;;;2.17;1.83;;;;;;;9.80;49.79;99703.75;4996994;28;20316;-82
2021/12/19 10:54:21;;;;;;;3.07;1.67;;;;;;;9.71;49.93;99681.78;4979506;28;20231;-83
2021/12/19 10:56:48;;;;;;;1.70;1.53;;;;;;;9.65;49.80;99679.97;4962375;28;20536;-82
2021/12/19 10:59:18;;;;;;;1.97;1.50;;;;;;;9.72;50.65;99677.25;4981972;28;20255;-82
2021/12/19 11:01:51;;;;;;;1.93;1.73;;;;;;;9.64;50.49;99664.13;4982254;28;20184;-81
2021/12/19 11:04:36;;;;;;;1.83;1.67;;;;;;;9.82;50.62;99684.84;4973844;28;20296;-80
2021/12/19 11:07:03;;;;;;;2.50;2.00;;;;;;;9.80;50.49;99689.59;4949556;28;20256;-80
2021/12/19 11:09:36;;;;;;;1.50;1.40;;;;;;;9.78;50.64;99694.31;4980421;28;20232;-80
2021/12/19 11:12:11;;;;;;;2.27;1.80;;;;;;;9.86;50.75;99713.63;4980190;28;20239;-80
2021/12/19 11:14:40;;;;;;;2.80;1.60;;;;;;;9.70;50.17;99690.03;4964331;28;20620;-80
2021/12/19 11:17:16;;;;;;;2.30;1.73;;;;;;;9.72;50.77;99701.34;4979816;28;20315;-82
2021/12/19 11:19:44;;;;;;;1.87;1.50;;;;;;;9.58;50.37;99668.47;4997487;28;20231;-82
2021/12/19 11:22:23;;;;;;;1.83;1.60;;;;;;;9.57;50.43;99688.22;4981159;28;20216;-82
2021/12/19 11:24:56;;;;;;;1.97;1.63;;;;;;;9.63;50.91;99692.72;4965274;28;20263;-82
2021/12/19 11:27:23;;;;;;;1.80;1.43;;;;;;;9.66;50.49;99691.47;4981824;28;20224;-82
2021/12/19 11:29:52;;;;;;;1.53;1.30;;;;;;;9.64;50.77;99688.22;4980680;28;20649;-82
2021/12/19 11:32:31;;;;;;;1.40;1.27;;;;;;;9.65;50.75;99692.53;4967381;28;20243;-82
2021/12/19 11:35:09;;;;;;;1.60;1.40;;;;;;;9.47;50.53;99695.88;4964925;28;20227;-82
2021/12/19 11:37:43;;;;;;;2.27;1.40;;;;;;;9.35;51.18;99673.50;4984878;28;20238;-82
2021/12/19 11:40:16;;;;;;;1.73;1.43;;;;;;;9.28;51.01;99667.34;4982431;28;20549;-82
2021/12/19 11:42:45;;;;;;;2.23;1.70;;;;;;;9.37;50.69;99670.63;4997092;28;20223;-82
2021/12/19 11:45:31;;;;;;;1.70;1.50;;;;;;;9.23;51.04;99685.88;4982884;28;20240;-82
2021/12/19 11:48:17;;;;;;;1.50;1.30;;;;;;;9.24;50.95;99669.59;4963857;28;20585;-82
2021/12/19 11:50:56;;;;;;;1.60;1.40;;;;;;;9.31;51.67;99682.16;4980668;28;20235;-82
2021/12/19 11:53:31;;;;;;;1.87;1.47;;;;;;;9.24;51.65;99672.28;4937653;28;1345490;-82
2021/12/19 11:56:08;;;;;;;1.33;1.10;;;;;;;9.38;51.08;99685.63;4983111;28;20228;-82
2021/12/19 11:58:48;;;;;;;1.87;1.27;;;;;;;9.25;51.45;99678.44;4992754;23;20714;-82
2021/12/19 12:01:34;;;;;;;1.63;1.27;;;;;;;9.11;51.68;99684.84;4975133;28;20235;-82
2021/12/19 12:04:14;;;;;;;1.43;1.20;;;;;;;9.08;52.36;99683.44;4962074;28;20215;-82
2021/12/19 12:06:43;;;;;;;1.97;1.30;;;;;;;8.91;52.93;99668.06;4962895;28;20232;-82
2021/12/19 12:09:24;;;;;;;1.73;1.50;;;;;;;8.64;53.12;99673.41;4977839;28;20229;-82
2021/12/19 12:12:03;;;;;;;2.00;1.50;;;;;;;8.64;53.40;99660.03;4962845;29;20239;-82
2021/12/19 12:14:37;;;;;;;1.77;1.37;;;;;;;8.50;54.17;99669.09;4962823;29;20248;-82
2021/12/19 12:17:10;;;;;;;1.43;1.10;;;;;;;8.38;54.62;99658.22;4977492;28;20225;-82
2021/12/19 12:19:43;;;;;;;2.20;1.50;;;;;;;8.29;54.82;99663.91;4962112;28;20229;-82
2021/12/19 12:22:25;;;;;;;1.90;1.50;;;;;;;8.35;55.22;99657.81;4961668;29;20332;-82
2021/12/19 12:25:21;;;;;;;3.07;1.77;;;;;;;8.09;55.11;99658.53;4962191;28;20252;-82
2021/12/19 12:28:04;;;;;;;2.23;1.70;;;;;;;8.02;55.12;99665.72;4945704;29;20287;-82
2021/12/19 12:30:45;;;;;;;2.50;1.80;;;;;;;7.76;55.59;99666.47;4961880;28;20224;-82
2021/12/19 12:33:20;;;;;;;3.70;1.73;;;;;;;7.70;55.91;99671.78;4963003;28;20235;-82
2021/12/19 12:35:50;;;;;;;3.20;2.17;;;;;;;7.62;56.20;99666.63;4947725;29;20238;-82
2021/12/19 12:38:17;;;;;;;2.57;2.17;;;;;;;7.30;56.90;99647.63;4947439;28;20246;-82
2021/12/19 12:41:04;;;;;;;2.23;1.70;;;;;;;7.36;56.62;99635.34;4963018;28;20239;-82
2021/12/19 12:43:37;;;;;;;2.83;2.10;;;;;;;7.05;57.22;99641.97;4962783;28;20328;-82
2021/12/19 12:46:25;;;;;;;2.67;1.93;;;;;;;7.14;57.52;99639.16;4970582;23;20286;-82
2021/12/19 12:49:06;;;;;;;2.97;2.03;;;;;;;7.06;57.68;99651.59;4966365;28;20538;-82
2021/12/19 12:51:49;;;;;;;2.17;1.90;;;;;;;7.04;57.81;99645.66;4982069;28;20255;-82
2021/12/19 12:54:21;;;;;;;2.63;1.93;;;;;;;7.07;57.89;99657.75;4961590;29;20229;-82
2021/12/19 12:56:54;;;;;;;2.93;2.30;;;;;;;7.03;57.62;99637.84;4960438;28;20276;-82
2021/12/19 12:59:38;;;;;;;2.53;2.20;;;;;;;6.97;57.38;99630.66;4975571;28;20290;-82
2021/12/19 13:02:24;;;;;;;2.40;2.00;;;;;;;6.94;58.23;99631.88;4981545;28;20271;-82
2021/12/19 13:04:51;;;;;;;2.60;2.00;;;;;;;6.68;58.83;99645.00;4981761;28;20260;-82
2021/12/19 13:07:24;;;;;;;2.27;1.90;;;;;;;6.66;59.09;99636.41;4975596;28;20232;-82
2021/12/19 13:10:00;;;;;;;3.20;2.40;;;;;;;6.69;58.88;99638.66;4980526;28;20234;-82
2021/12/19 13:12:36;;;;;;;3.90;2.47;;;;;;;6.72;59.01;99624.16;4959863;29;20548;-82
2021/12/19 13:15:12;;;;;;;3.10;2.40;;;;;;;6.60;58.90;99627.34;4946804;29;20232;-82
2021/12/19 13:17:48;;;;;;;2.97;2.63;;;;;;;6.51;59.01;99620.53;4947146;28;20227;-82